Time;durP1;ratioP1;P1;durP2;ratioP2;P2;SDS_P1;SDS_P2;PMS_P1;PMS_P2;Temp;Humidity;BMP_temperature;BMP_pressure;BME280_temperature;BME280_humidity;BME280_pressure;Samples;Min_cycle;Max_cycle;Signal;HPM_P1;HPM_P2
2022/10/08 00:01:00;;;;;;;;;6.00;5.33;;;;;13.79;100.00;101789.47;5059102;28;45358;-72
2022/10/08 00:03:27;;;;;;;;;10.67;5.33;;;;;13.80;100.00;101794.84;5058354;28;45276;-72
2022/10/08 00:05:54;;;;;;;;;5.67;4.00;;;;;13.80;100.00;101796.59;5058676;28;45327;-72
2022/10/08 00:08:20;;;;;;;;;7.00;5.33;;;;;13.77;100.00;101792.13;5058037;28;46078;-72
2022/10/08 00:10:54;;;;;;;;;5.00;5.00;;;;;13.81;100.00;101785.09;5057551;28;61802;-72
2022/10/08 00:13:20;;;;;;;;;3.67;3.00;;;;;13.81;100.00;101783.34;5058194;28;45285;-71
2022/10/08 00:15:45;;;;;;;;;7.00;4.00;;;;;13.83;100.00;101788.66;5058373;28;45617;-72
2022/10/08 00:18:11;;;;;;;;;4.67;1.33;;;;;13.83;100.00;101786.00;5058203;28;46331;-72
2022/10/08 00:20:36;;;;;;;;;5.00;3.00;;;;;13.89;100.00;101788.72;5038227;28;54776;-72
2022/10/08 00:23:01;;;;;;;;;4.33;4.33;;;;;13.90;100.00;101798.47;5052248;28;59803;-72
2022/10/08 00:25:27;;;;;;;;;4.00;1.00;;;;;13.91;100.00;101792.31;5057891;28;52492;-72
2022/10/08 00:27:53;;;;;;;;;5.00;2.00;;;;;13.93;100.00;101795.88;5057564;28;61907;-72
2022/10/08 00:30:18;;;;;;;;;4.00;3.00;;;;;13.93;100.00;101801.19;5058242;28;45325;-71
2022/10/08 00:32:44;;;;;;;;;2.00;2.00;;;;;13.91;100.00;101797.63;5058663;28;45166;-71
2022/10/08 00:35:09;;;;;;;;;2.00;2.00;;;;;13.92;100.00;101794.09;5058125;28;53125;-71
2022/10/08 00:37:34;;;;;;;;;2.67;2.00;;;;;13.89;100.00;101792.28;5039852;28;46037;-72
2022/10/08 00:40:00;;;;;;;;;2.00;2.00;;;;;13.89;100.00;101792.28;5058212;28;45355;-71
2022/10/08 00:42:25;;;;;;;;;3.00;3.00;;;;;13.87;100.00;101799.34;5058039;28;45574;-71
2022/10/08 00:44:59;;;;;;;;;2.67;2.00;;;;;13.88;100.00;101806.44;5058335;28;45284;-71
2022/10/08 00:47:31;;;;;;;;;4.00;3.00;;;;;13.86;100.00;101809.94;5057468;28;45265;-71
2022/10/08 00:50:34;;;;;;;;;2.00;2.00;;;;;13.83;100.00;101797.50;5057898;28;45412;-71
2022/10/08 00:53:04;;;;;;;;;3.33;3.00;;;;;13.83;100.00;101797.50;5039824;28;45545;-71
2022/10/08 00:55:31;;;;;;;;;3.33;3.33;;;;;13.83;100.00;101794.84;5057906;28;45523;-71
2022/10/08 00:58:01;;;;;;;;;10.00;2.00;;;;;13.81;100.00;101786.00;5057889;28;46718;-71
2022/10/08 01:00:27;;;;;;;;;6.67;3.33;;;;;13.79;100.00;101800.97;5040035;28;45296;-71
2022/10/08 01:02:53;;;;;;;;;6.00;3.00;;;;;13.78;100.00;101808.94;5058085;28;45411;-72
2022/10/08 01:05:45;;;;;;;;;2.00;1.00;;;;;13.72;100.00;101801.78;5057603;28;45589;-71
2022/10/08 01:08:32;;;;;;;;;3.00;3.00;;;;;13.73;100.00;101811.53;5010281;28;45729;-72
2022/10/08 01:11:10;;;;;;;;;4.00;3.00;;;;;13.71;100.00;101815.03;5038927;28;45312;-71
2022/10/08 01:13:51;;;;;;;;;5.00;3.33;;;;;13.68;100.00;101812.34;5057730;28;45446;-71
2022/10/08 01:16:26;;;;;;;;;3.00;3.00;;;;;13.65;100.00;101810.56;5057686;28;45433;-71
2022/10/08 01:19:00;;;;;;;;;4.00;2.33;;;;;13.61;100.00;101804.28;5039473;28;46637;-72
2022/10/08 01:21:58;;;;;;;;;2.67;2.67;;;;;13.59;100.00;101803.41;5031806;28;45519;-72
2022/10/08 01:27:24;;;;;;;;;3.00;3.00;;;;;13.50;100.00;101797.06;5046208;28;45420;-72
2022/10/08 01:29:51;;;;;;;;;9.67;4.00;;;;;13.51;100.00;101806.78;5039285;28;45888;-72
2022/10/08 01:32:21;;;;;;;;;5.67;4.00;;;;;13.46;100.00;101788.16;5039017;28;61637;-72
2022/10/08 01:34:51;;;;;;;;;5.67;4.00;;;;;13.45;100.00;101798.75;5039020;28;45446;-71
2022/10/08 01:37:28;;;;;;;;;4.67;3.67;;;;;13.43;100.00;101796.09;5039500;28;45654;-72
2022/10/08 01:39:55;;;;;;;;;5.33;3.00;;;;;13.42;100.00;101796.94;5039131;28;45546;-71
2022/10/08 01:42:24;;;;;;;;;3.00;3.00;;;;;13.41;100.00;101794.25;5055040;28;61174;-72
2022/10/08 01:44:54;;;;;;;;;6.00;4.00;;;;;13.38;100.00;101787.16;5039740;28;45490;-72
2022/10/08 01:47:22;;;;;;;;;6.00;3.00;;;;;13.39;100.00;101788.94;5039244;28;46160;-72
2022/10/08 01:49:52;;;;;;;;;4.00;3.00;;;;;13.41;100.00;101789.84;5039264;28;46780;-71
2022/10/08 01:52:30;;;;;;;;;4.00;4.00;;;;;13.40;100.00;101785.41;5038652;28;45257;-71
2022/10/08 01:55:07;;;;;;;;;0.33;0.33;;;;;13.43;100.00;101792.53;5038773;28;45446;-72
2022/10/08 01:57:33;;;;;;;;;2.00;2.00;;;;;13.41;100.00;101781.00;5038733;28;45587;-72
2022/10/08 02:00:07;;;;;;;;;3.00;1.67;;;;;13.46;100.00;101779.31;5039155;28;45721;-72
2022/10/08 02:02:32;;;;;;;;;6.67;4.00;;;;;13.46;100.00;101772.22;5038712;28;45491;-72
2022/10/08 02:04:58;;;;;;;;;4.00;3.00;;;;;13.49;100.00;101774.06;5038351;28;56221;-72
2022/10/08 02:07:29;;;;;;;;;3.33;3.33;;;;;13.53;100.00;101775.84;5057065;28;45482;-72
2022/10/08 02:10:05;;;;;;;;;3.00;3.00;;;;;13.56;100.00;101782.09;5035041;28;45993;-72
2022/10/08 02:12:31;;;;;;;;;6.33;3.00;;;;;13.60;100.00;101778.63;5034983;28;45443;-71
2022/10/08 02:14:57;;;;;;;;;3.00;2.67;;;;;13.64;100.00;101784.88;5035665;28;45469;-71
2022/10/08 02:17:34;;;;;;;;;7.00;4.00;;;;;13.72;100.00;101784.97;5032157;28;45552;-71
2022/10/08 02:20:32;;;;;;;;;2.67;2.67;;;;;13.77;100.00;101777.97;5032478;28;46731;-71
2022/10/08 02:22:57;;;;;;;;;3.33;3.33;;;;;13.78;100.00;101775.31;5019327;28;47137;-71
2022/10/08 02:25:48;;;;;;;;;3.00;3.00;;;;;13.78;100.00;101769.13;5036694;28;45276;-72
2022/10/08 02:28:23;;;;;;;;;1.67;1.00;;;;;13.76;100.00;101776.19;5035138;28;45633;-72
2022/10/08 02:31:13;;;;;;;;;4.67;4.00;;;;;13.75;100.00;101772.66;5036232;28;47313;-71
2022/10/08 02:33:47;;;;;;;;;2.00;2.00;;;;;13.75;100.00;101761.13;5025994;28;45404;-72
2022/10/08 02:36:16;;;;;;;;;2.33;2.33;;;;;13.81;100.00;101766.53;5022589;28;45344;-72
2022/10/08 02:38:54;;;;;;;;;4.00;2.00;;;;;13.81;100.00;101764.75;5035175;28;45652;-72
2022/10/08 02:41:24;;;;;;;;;2.67;2.00;;;;;13.82;100.00;101765.66;5035038;28;46041;-72
2022/10/08 02:43:52;;;;;;;;;5.00;2.67;;;;;13.82;100.00;101769.19;5035100;28;45415;-72
2022/10/08 02:46:20;;;;;;;;;3.33;2.33;;;;;13.84;100.00;101775.41;5034844;28;54891;-72
2022/10/08 02:48:51;;;;;;;;;5.00;2.00;;;;;13.81;100.00;101775.38;5036693;28;45465;-71
2022/10/08 02:51:18;;;;;;;;;2.67;2.00;;;;;13.87;100.00;101772.78;5036230;28;46743;-71
2022/10/08 02:53:44;;;;;;;;;2.00;2.00;;;;;13.91;100.00;101772.84;5034432;28;56790;-72
2022/10/08 02:56:31;;;;;;;;;4.00;2.00;;;;;13.92;100.00;101769.31;5035176;28;45323;-72
2022/10/08 02:58:57;;;;;;;;;3.33;2.00;;;;;13.97;100.00;101775.56;5035034;28;45253;-72
2022/10/08 03:01:47;;;;;;;;;1.00;1.00;;;;;13.99;100.00;101780.00;5035618;28;59022;-72
2022/10/08 03:04:49;;;;;;;;;1.67;1.67;;;;;13.97;100.00;101772.91;5036216;28;45313;-71
2022/10/08 03:07:15;;;;;;;;;1.33;1.33;;;;;13.95;100.00;101767.56;4987127;28;45379;-71
2022/10/08 03:09:45;;;;;;;;;2.00;2.00;;;;;13.95;100.00;101775.53;5039605;28;45422;-72
2022/10/08 03:12:11;;;;;;;;;2.00;2.00;;;;;13.93;100.00;101777.28;5058696;28;65952;-71
2022/10/08 03:14:47;;;;;;;;;2.00;2.00;;;;;13.89;100.00;101772.81;5040923;28;48927;-71
2022/10/08 03:17:16;;;;;;;;;3.00;1.67;;;;;13.87;100.00;101778.09;5038329;28;45330;-71
2022/10/08 03:19:41;;;;;;;;;4.00;3.00;;;;;13.85;100.00;101771.00;5042090;28;45355;-71
2022/10/08 03:22:07;;;;;;;;;1.00;1.00;;;;;13.81;100.00;101777.13;5060914;28;61522;-72
2022/10/08 03:24:33;;;;;;;;;3.33;2.00;;;;;13.81;100.00;101775.38;5058436;28;62348;-71
2022/10/08 03:26:58;;;;;;;;;3.67;2.00;;;;;13.78;100.00;101777.97;5040966;28;45384;-72
2022/10/08 03:29:24;;;;;;;;;3.00;3.00;;;;;13.79;100.00;101778.88;5058529;28;58367;-71
2022/10/08 03:31:49;;;;;;;;;1.33;1.33;;;;;13.81;100.00;101793.06;5058963;28;46469;-71
2022/10/08 03:34:15;;;;;;;;;2.00;2.00;;;;;13.75;100.00;101787.69;5040971;28;45308;-71
2022/10/08 03:36:40;;;;;;;;;3.00;2.00;;;;;13.76;100.00;101808.94;5041256;28;45387;-71
2022/10/08 03:39:06;;;;;;;;;2.00;2.00;;;;;13.75;100.00;101806.25;5059213;28;45320;-71
2022/10/08 03:41:31;;;;;;;;;2.00;2.00;;;;;13.70;100.00;101792.94;5058645;28;56302;-71
2022/10/08 03:43:58;;;;;;;;;2.00;2.00;;;;;13.70;100.00;101800.88;5040847;28;45236;-71
2022/10/08 03:46:24;;;;;;;;;2.67;2.67;;;;;13.68;100.00;101804.38;5041289;28;45408;-71
2022/10/08 03:48:49;;;;;;;;;4.00;3.00;;;;;13.66;100.00;101807.00;5059121;28;45515;-71
2022/10/08 03:51:16;;;;;;;;;2.00;2.00;;;;;13.64;100.00;101806.13;5040939;28;46047;-72
2022/10/08 03:53:42;;;;;;;;;1.67;1.67;;;;;13.66;100.00;101809.66;5040374;28;45475;-72
2022/10/08 03:56:10;;;;;;;;;2.00;2.00;;;;;13.65;100.00;101807.00;5058890;28;45480;-71
2022/10/08 03:58:36;;;;;;;;;1.00;1.00;;;;;13.65;100.00;101810.56;5058451;28;45548;-72
2022/10/08 04:01:07;;;;;;;;;1.33;1.33;;;;;13.67;100.00;101813.22;5058663;28;46968;-72
2022/10/08 04:03:33;;;;;;;;;1.67;1.67;;;;;13.68;100.00;101818.53;5058472;28;45407;-71
2022/10/08 04:05:59;;;;;;;;;1.00;1.00;;;;;13.71;100.00;101831.84;5040869;28;45382;-71
2022/10/08 04:08:25;;;;;;;;;1.33;1.33;;;;;13.73;100.00;101842.50;5040453;28;45562;-72
2022/10/08 04:10:50;;;;;;;;;1.33;1.00;;;;;13.73;100.00;101842.50;5058091;28;46577;-72
2022/10/08 04:13:16;;;;;;;;;2.67;1.00;;;;;13.76;100.00;101850.50;5058417;28;45331;-72
2022/10/08 04:15:42;;;;;;;;;3.33;1.00;;;;;13.75;100.00;101838.13;5040961;28;45241;-72
2022/10/08 04:18:11;;;;;;;;;1.00;1.00;;;;;13.74;100.00;101842.53;5058370;28;45143;-71
2022/10/08 04:20:38;;;;;;;;;1.67;1.67;;;;;13.78;100.00;101854.06;5055470;28;46532;-71
2022/10/08 04:23:03;;;;;;;;;3.33;1.00;;;;;13.76;100.00;101848.75;5035088;28;45352;-72
2022/10/08 04:25:29;;;;;;;;;1.00;1.00;;;;;13.79;100.00;101855.84;5058067;28;56319;-71
2022/10/08 04:27:54;;;;;;;;;2.00;1.00;;;;;13.80;100.00;101860.31;5058552;28;45348;-72
2022/10/08 04:30:19;;;;;;;;;1.00;1.00;;;;;13.83;100.00;101861.22;5058327;28;46569;-71
2022/10/08 04:32:45;;;;;;;;;4.00;2.00;;;;;13.88;100.00;101861.28;5058168;28;45304;-72
2022/10/08 04:35:10;;;;;;;;;1.00;1.00;;;;;13.95;100.00;101875.53;5056663;28;45386;-71
2022/10/08 04:37:35;;;;;;;;;5.00;3.33;;;;;13.97;100.00;101863.19;5057619;28;50504;-72
2022/10/08 04:40:01;;;;;;;;;9.33;5.00;;;;;13.97;100.00;101869.41;5056735;28;60919;-71
2022/10/08 04:42:26;;;;;;;;;5.33;4.00;;;;;14.00;100.00;101873.84;5056171;28;57745;-72
2022/10/08 04:44:51;;;;;;;;;13.67;6.33;;;;;14.04;100.00;101867.69;5057838;28;54627;-71
2022/10/08 04:47:17;;;;;;;;;6.33;4.00;;;;;14.05;100.00;101866.81;5058259;28;45380;-72
2022/10/08 04:49:42;;;;;;;;;5.00;5.00;;;;;14.01;100.00;101860.59;5057585;28;61955;-72
2022/10/08 04:52:08;;;;;;;;;5.67;5.67;;;;;13.99;100.00;101867.63;5057422;28;45324;-72
2022/10/08 04:54:34;;;;;;;;;6.00;5.00;;;;;13.98;100.00;101868.53;5057863;28;45396;-72
2022/10/08 04:56:59;;;;;;;;;6.67;3.67;;;;;13.97;100.00;101865.84;5057901;28;45543;-72
2022/10/08 04:59:25;;;;;;;;;8.33;5.00;;;;;13.96;100.00;101875.59;5057462;28;55687;-72
2022/10/08 05:01:55;;;;;;;;;6.67;6.00;;;;;13.93;100.00;101871.97;5056976;28;58773;-72
2022/10/08 05:04:21;;;;;;;;;3.67;3.67;;;;;13.89;100.00;101879.00;5057881;28;45254;-72
2022/10/08 05:06:46;;;;;;;;;5.67;4.00;;;;;13.87;100.00;101878.09;5057402;28;45458;-72
2022/10/08 05:09:11;;;;;;;;;4.00;2.67;;;;;13.83;100.00;101879.81;5057002;28;62548;-72
2022/10/08 05:11:37;;;;;;;;;3.33;2.67;;;;;13.83;100.00;101882.47;5056761;28;49833;-72
2022/10/08 05:14:02;;;;;;;;;3.00;2.00;;;;;13.84;100.00;101888.66;5057711;28;45182;-72
2022/10/08 05:16:27;;;;;;;;;6.00;2.00;;;;;13.81;100.00;101880.66;5057525;28;45185;-71
2022/10/08 05:18:53;;;;;;;;;1.67;1.00;;;;;13.81;100.00;101893.94;5057251;28;47176;-72
2022/10/08 05:21:20;;;;;;;;;1.00;1.00;;;;;13.79;100.00;101879.72;5055949;28;45481;-71
2022/10/08 05:23:46;;;;;;;;;2.67;2.00;;;;;13.83;100.00;101889.53;5039613;28;45381;-72
2022/10/08 05:26:17;;;;;;;;;2.67;1.00;;;;;13.83;100.00;101897.50;5038744;28;45288;-72
2022/10/08 05:28:45;;;;;;;;;2.00;2.00;;;;;13.83;100.00;101898.38;5057305;28;45929;-72
2022/10/08 05:31:11;;;;;;;;;2.67;1.00;;;;;13.81;100.00;101889.53;5057210;28;45290;-71
2022/10/08 05:33:37;;;;;;;;;1.00;1.00;;;;;13.81;100.00;101896.59;5056151;28;45274;-72
2022/10/08 05:36:05;;;;;;;;;5.67;1.67;;;;;13.84;100.00;101905.47;5039475;28;45301;-72
2022/10/08 05:38:30;;;;;;;;;2.00;2.00;;;;;13.82;100.00;101906.34;5057046;28;46943;-71
2022/10/08 05:41:25;;;;;;;;;1.33;1.00;;;;;13.82;100.00;101911.66;5056906;28;45221;-71
2022/10/08 05:43:52;;;;;;;;;2.00;1.00;;;;;13.82;100.00;101911.66;5057073;28;45379;-72
2022/10/08 05:46:18;;;;;;;;;1.00;1.00;;;;;13.81;100.00;101920.50;5039341;28;45405;-72
2022/10/08 05:48:43;;;;;;;;;0.67;0.00;;;;;13.78;100.00;101916.00;5056743;28;48093;-72
2022/10/08 05:51:13;;;;;;;;;1.00;1.00;;;;;13.79;100.00;101924.88;5039190;28;45474;-72
2022/10/08 05:53:41;;;;;;;;;4.33;1.67;;;;;13.75;100.00;101915.97;5056599;28;45355;-72
2022/10/08 05:56:09;;;;;;;;;4.33;1.00;;;;;13.75;100.00;101905.38;5057066;28;45404;-72
2022/10/08 05:58:35;;;;;;;;;2.00;1.00;;;;;13.80;100.00;101910.75;5055434;28;46823;-71
2022/10/08 06:01:04;;;;;;;;;2.00;2.00;;;;;13.78;100.00;101913.34;5056207;28;45328;-71
2022/10/08 06:03:29;;;;;;;;;1.00;1.00;;;;;13.80;100.00;101921.38;5056065;28;45319;-71
2022/10/08 06:06:04;;;;;;;;;2.00;2.00;;;;;13.79;100.00;101931.06;5052099;28;45486;-71
2022/10/08 06:08:30;;;;;;;;;4.67;2.00;;;;;13.78;100.00;101923.09;5055566;28;47505;-71
2022/10/08 06:10:55;;;;;;;;;1.00;1.00;;;;;13.78;100.00;101934.59;5177366;22;45746;-70
2022/10/08 06:13:21;;;;;;;;;4.00;1.33;;;;;13.75;100.00;101931.91;5055588;28;56339;-70
2022/10/08 06:15:58;;;;;;;;;2.00;1.00;;;;;13.73;100.00;101938.94;5056430;28;45418;-71
2022/10/08 06:18:25;;;;;;;;;3.67;1.00;;;;;13.71;100.00;101946.00;5052127;28;46690;-70
2022/10/08 06:20:50;;;;;;;;;2.33;1.00;;;;;13.71;100.00;101958.38;5053444;28;45529;-71
2022/10/08 06:23:16;;;;;;;;;2.00;1.00;;;;;13.66;100.00;101945.03;5056363;28;45329;-70
2022/10/08 06:25:42;;;;;;;;;1.00;1.00;;;;;13.66;100.00;101954.75;5054319;28;45655;-70
2022/10/08 06:28:07;;;;;;;;;2.00;2.00;;;;;13.64;100.00;101960.03;5056221;28;46433;-70
2022/10/08 06:30:32;;;;;;;;;1.00;1.00;;;;;13.65;100.00;101967.13;5052704;28;62096;-70
2022/10/08 06:32:58;;;;;;;;;5.00;2.67;;;;;13.61;100.00;101954.66;5055027;28;45404;-70
2022/10/08 06:35:23;;;;;;;;;4.33;2.00;;;;;13.59;100.00;101965.28;5055403;28;45287;-70
2022/10/08 06:37:49;;;;;;;;;2.33;2.33;;;;;13.60;100.00;101960.84;5054609;28;46686;-70
2022/10/08 06:40:15;;;;;;;;;2.00;2.00;;;;;13.61;100.00;101967.94;5054638;28;50485;-70
2022/10/08 06:42:40;;;;;;;;;3.33;2.33;;;;;13.61;100.00;101958.22;5054868;28;45378;-70
2022/10/08 06:45:06;;;;;;;;;2.00;2.00;;;;;13.65;100.00;101964.47;5057927;28;58262;-70
2022/10/08 06:47:32;;;;;;;;;2.33;2.00;;;;;13.69;100.00;101970.72;5059635;28;47437;-70
2022/10/08 06:49:57;;;;;;;;;4.33;1.33;;;;;13.71;100.00;101987.56;5058710;28;63906;-70
2022/10/08 06:52:23;;;;;;;;;3.33;2.00;;;;;13.70;100.00;101975.19;5058070;28;57421;-70
2022/10/08 06:54:48;;;;;;;;;2.33;1.67;;;;;13.71;100.00;101979.59;5041974;28;45364;-70
2022/10/08 06:57:13;;;;;;;;;5.00;2.00;;;;;13.74;100.00;101996.50;5041285;28;45439;-70
2022/10/08 06:59:39;;;;;;;;;3.67;2.00;;;;;13.74;100.00;101990.25;5058973;28;62643;-70
2022/10/08 07:02:04;;;;;;;;;2.00;2.00;;;;;13.72;100.00;101992.91;5058483;28;60155;-70
2022/10/08 07:04:29;;;;;;;;;5.00;2.33;;;;;13.75;100.00;102002.69;5057834;28;57456;-70
2022/10/08 07:06:54;;;;;;;;;3.00;3.00;;;;;13.78;100.00;102010.69;5058944;28;47259;-70
2022/10/08 07:09:20;;;;;;;;;6.33;4.00;;;;;13.78;100.00;102005.38;5059044;28;45594;-70
2022/10/08 07:11:45;;;;;;;;;5.00;4.00;;;;;13.81;100.00;102018.72;5058529;28;56577;-70
2022/10/08 07:14:11;;;;;;;;;5.67;2.67;;;;;13.83;100.00;102009.00;5058020;28;53734;-70
2022/10/08 07:16:36;;;;;;;;;5.00;3.00;;;;;13.86;100.00;102011.72;5058226;28;45986;-70
2022/10/08 07:19:02;;;;;;;;;5.00;3.00;;;;;13.90;100.00;102021.50;5058371;28;45368;-71
2022/10/08 07:21:28;;;;;;;;;5.67;3.00;;;;;13.95;100.00;102019.81;5057805;28;45341;-70
2022/10/08 07:23:54;;;;;;;;;5.33;3.00;;;;;13.95;100.00;102014.50;5059058;28;45512;-70
2022/10/08 07:26:22;;;;;;;;;3.33;2.00;;;;;13.98;100.00;102026.94;5058653;28;56417;-71
2022/10/08 07:28:53;;;;;;;;;3.33;2.00;;;;;14.01;100.00;102029.63;5058868;28;45328;-69
2022/10/08 07:31:22;;;;;;;;;4.00;3.00;;;;;14.04;100.00;102035.91;5058758;28;45442;-69
2022/10/08 07:33:47;;;;;;;;;3.00;3.00;;;;;14.05;100.00;102035.03;5060788;28;45665;-70
2022/10/08 07:36:18;;;;;;;;;5.33;4.00;;;;;14.12;100.00;102046.66;5061462;28;45415;-69
2022/10/08 07:38:43;;;;;;;;;2.67;2.33;;;;;14.15;100.00;102052.00;5058769;28;45258;-69
2022/10/08 07:41:10;;;;;;;;;2.00;2.00;;;;;14.14;100.00;102043.16;5058273;28;52494;-69
2022/10/08 07:43:39;;;;;;;;;5.00;3.00;;;;;14.18;100.00;102054.72;5058794;28;45470;-69
2022/10/08 07:46:06;;;;;;;;;7.33;4.33;;;;;14.21;100.00;102062.72;5058300;28;46590;-69
2022/10/08 07:48:32;;;;;;;;;4.00;2.67;;;;;14.23;100.00;102068.97;5040711;28;45441;-70
2022/10/08 07:51:09;;;;;;;;;4.33;3.00;;;;;14.26;100.00;102065.47;5058586;28;45486;-70
2022/10/08 07:53:35;;;;;;;;;10.00;4.00;;;;;14.24;100.00;102068.09;5058204;28;45444;-69
2022/10/08 07:56:01;;;;;;;;;5.00;3.67;;;;;14.26;100.00;102068.13;5056569;28;46078;-70
2022/10/08 07:58:26;;;;;;;;;8.00;5.00;;;;;14.28;100.00;102074.38;5054384;28;45209;-71
2022/10/08 08:00:59;;;;;;;;;5.00;4.33;;;;;14.28;100.00;102074.38;5056647;28;48786;-72
2022/10/08 08:03:25;;;;;;;;;6.00;5.00;;;;;14.30;100.00;102078.81;5055119;28;45296;-70
2022/10/08 08:05:50;;;;;;;;;4.00;4.00;;;;;14.30;100.00;102081.47;5039752;28;45589;-69
2022/10/08 08:08:16;;;;;;;;;5.33;4.33;;;;;14.33;100.00;102084.19;5057640;28;45370;-70
2022/10/08 08:10:41;;;;;;;;;4.33;3.33;;;;;14.34;100.00;102078.00;5049932;28;45584;-70
2022/10/08 08:13:07;;;;;;;;;10.00;6.00;;;;;14.37;100.00;102078.03;5039159;28;45577;-71
2022/10/08 08:15:32;;;;;;;;;6.67;5.33;;;;;14.40;100.00;102087.84;5047392;28;60904;-70
2022/10/08 08:17:57;;;;;;;;;7.67;7.67;;;;;14.40;100.00;102091.38;5049762;28;53944;-70
2022/10/08 08:20:23;;;;;;;;;9.00;6.00;;;;;14.41;100.00;102086.97;5030938;28;54070;-71
2022/10/08 08:22:48;;;;;;;;;8.33;6.67;;;;;14.47;100.00;102104.75;5049682;28;54412;-71
2022/10/08 08:25:14;;;;;;;;;7.00;5.00;;;;;14.46;100.00;102090.59;5037886;28;46960;-71
2022/10/08 08:27:39;;;;;;;;;6.67;5.33;;;;;14.54;100.00;102106.66;5031780;28;45529;-73
2022/10/08 08:30:05;;;;;;;;;8.33;4.00;;;;;14.59;100.00;102108.50;5032219;28;54092;-71
2022/10/08 08:32:31;;;;;;;;;7.67;6.00;;;;;14.64;100.00;102121.88;5057424;28;45414;-70
2022/10/08 08:34:57;;;;;;;;;9.00;5.67;;;;;14.68;100.00;102123.72;5049536;28;46779;-70
2022/10/08 08:37:22;;;;;;;;;9.33;6.67;;;;;14.71;100.00;102125.56;5055519;28;45521;-70
2022/10/08 08:39:47;;;;;;;;;8.33;6.00;;;;;14.73;100.00;102127.34;5050112;28;45846;-71
2022/10/08 08:42:29;;;;;;;;;6.33;6.33;;;;;14.77;100.00;102131.84;5057518;28;55083;-71
2022/10/08 08:45:00;;;;;;;;;9.67;9.00;;;;;14.84;100.00;102127.50;5044371;28;47395;-70
2022/10/08 08:47:48;;;;;;;;;14.67;6.00;;;;;14.87;100.00;102135.53;5036225;28;45865;-70
2022/10/08 08:50:34;;;;;;;;;5.67;4.00;;;;;14.84;100.00;102131.03;5031281;28;46386;-72
2022/10/08 08:53:01;;;;;;;;;3.33;3.00;;;;;14.86;100.00;102142.63;5044584;28;45455;-71
2022/10/08 08:55:37;;;;;;;;;7.33;5.33;;;;;14.88;100.00;102148.84;5045317;28;46941;-70
2022/10/08 08:58:34;;;;;;;;;7.00;5.00;;;;;14.91;100.00;102137.34;5026491;28;45620;-71
2022/10/08 09:01:08;;;;;;;;;5.00;3.00;;;;;14.93;100.00;102148.91;5000023;28;45663;-71
2022/10/08 09:03:39;;;;;;;;;5.33;2.33;;;;;14.96;100.00;102145.38;5041214;28;45607;-70
2022/10/08 09:06:11;;;;;;;;;2.00;2.00;;;;;14.96;100.00;102142.72;5030505;28;46906;-70
2022/10/08 09:08:56;;;;;;;;;4.67;3.33;;;;;15.03;100.00;102152.59;5029208;28;46537;-71
2022/10/08 09:11:23;;;;;;;;;4.67;2.33;;;;;15.04;100.00;102146.41;5042278;28;46018;-71
2022/10/08 09:14:16;;;;;;;;;7.00;2.00;;;;;15.11;100.00;102141.16;5049510;28;45526;-71
2022/10/08 09:16:41;;;;;;;;;7.00;3.00;;;;;15.13;100.00;102139.44;5048985;28;45779;-71
2022/10/08 09:19:08;;;;;;;;;7.00;4.00;;;;;15.21;100.00;102147.50;5038543;28;59077;-72
2022/10/08 09:21:33;;;;;;;;;7.00;3.00;;;;;15.24;100.00;102152.00;5046616;28;53549;-72
2022/10/08 09:23:59;;;;;;;;;6.33;3.00;;;;;15.26;100.00;102143.16;5030125;28;45476;-72
2022/10/08 09:26:32;;;;;;;;;1.67;1.67;;;;;15.32;100.00;102155.63;5048506;28;46675;-71
2022/10/08 09:28:59;;;;;;;;;4.33;2.00;;;;;15.37;100.00;102157.47;5025434;28;46445;-71
2022/10/08 09:31:37;;;;;;;;;4.00;1.33;;;;;15.43;100.00;102151.34;5030399;28;45840;-72
2022/10/08 09:34:08;;;;;;;;;2.00;2.00;;;;;15.52;100.00;102153.22;5040061;28;45827;-71
2022/10/08 09:36:37;;;;;;;;;3.00;2.00;;;;;15.56;100.00;102153.28;5046623;28;46470;-72
2022/10/08 09:39:05;;;;;;;;;3.00;2.00;;;;;15.65;100.00;102157.81;5028211;28;45533;-72
2022/10/08 09:41:30;;;;;;;;;5.00;2.00;;;;;15.68;100.00;102153.44;5032214;28;45448;-72
2022/10/08 09:44:14;;;;;;;;;4.00;2.67;;;;;15.77;100.00;102159.75;5027290;28;46001;-73
2022/10/08 09:46:40;;;;;;;;;2.00;2.00;;;;;15.80;100.00;102151.78;5025138;28;47077;-73
2022/10/08 09:49:25;;;;;;;;;3.67;1.67;;;;;15.90;100.00;102159.88;5030237;28;45837;-73
2022/10/08 09:51:51;;;;;;;;;5.33;0.67;;;;;15.93;100.00;102154.59;5038646;28;45458;-73
2022/10/08 09:54:22;;;;;;;;;3.67;1.00;;;;;16.01;100.00;102162.66;5047653;28;45454;-73
2022/10/08 09:56:56;;;;;;;;;2.67;1.00;;;;;16.09;100.00;102163.66;5028138;28;46513;-73
2022/10/08 09:59:24;;;;;;;;;3.33;1.00;;;;;16.17;100.00;102159.25;5028772;28;45615;-73
2022/10/08 10:01:49;;;;;;;;;2.00;2.00;;;;;16.29;100.00;102160.25;5040687;28;45506;-73
2022/10/08 10:04:34;;;;;;;;;2.00;2.00;;;;;16.43;100.00;102161.28;5045980;28;45967;-73
2022/10/08 10:07:00;;;;;;;;;4.00;2.67;;;;;16.50;100.00;102157.75;5027752;28;46078;-73
2022/10/08 10:09:39;;;;;;;;;2.33;1.00;;;;;16.60;100.00;102156.06;5025998;28;45751;-74
2022/10/08 10:12:18;;;;;;;;;5.00;2.00;;;;;16.70;100.00;102158.81;5027900;28;45622;-75
2022/10/08 10:14:49;;;;;;;;;2.67;2.67;;;;;16.82;100.00;102165.13;5047562;28;45815;-76
2022/10/08 10:17:19;;;;;;;;;4.33;2.00;;;;;16.93;100.00;102172.31;5047784;28;47367;-76
2022/10/08 10:19:55;;;;;;;;;3.00;1.33;;;;;16.93;100.00;102163.41;5030737;28;46025;-72
2022/10/08 10:22:29;;;;;;;;;3.00;1.00;;;;;16.89;100.00;102169.66;5046570;28;45809;-72
2022/10/08 10:25:05;;;;;;;;;2.67;1.33;;;;;16.82;100.00;102175.81;5051712;28;45602;-74
2022/10/08 10:27:34;;;;;;;;;5.00;2.00;;;;;16.76;100.00;102169.53;5033291;28;45760;-73
2022/10/08 10:30:13;;;;;;;;;3.67;1.00;;;;;16.89;100.00;102181.22;5033392;28;45501;-71
2022/10/08 10:32:42;;;;;;;;;4.00;0.00;;;;;17.02;100.00;102184.84;5032538;28;45489;-71
2022/10/08 10:35:13;;;;;;;;;1.67;1.67;;;;;17.12;100.00;102173.34;5054567;28;45404;-71
2022/10/08 10:37:45;;;;;;;;;1.00;1.00;;;;;17.27;100.00;102177.88;5041142;28;47239;-70
2022/10/08 10:40:16;;;;;;;;;2.00;1.00;;;;;17.41;100.00;102165.44;5023436;28;45454;-70
2022/10/08 10:43:08;;;;;;;;;2.00;1.00;;;;;17.56;100.00;102161.94;5054155;28;45497;-70
2022/10/08 10:45:34;;;;;;;;;1.00;1.00;;;;;17.69;100.00;102157.56;5044428;28;45562;-70
2022/10/08 10:48:00;;;;;;;;;3.00;1.00;;;;;17.80;100.00;102166.53;5059109;28;45451;-70
2022/10/08 10:50:54;;;;;;;;;1.67;1.00;;;;;17.79;100.00;102168.31;5058905;28;45324;-70
2022/10/08 10:53:37;;;;;;;;;2.67;1.33;;;;;17.81;100.00;102168.31;5059023;28;45284;-70
2022/10/08 10:56:12;;;;;;;;;0.00;0.00;;;;;17.80;100.00;102172.75;5059816;28;45197;-70
2022/10/08 10:59:13;;;;;;;;;4.00;1.00;;;;;17.77;100.00;102175.41;5059614;28;47973;-70
2022/10/08 11:01:45;;;;;;;;;3.00;1.00;;;;;17.76;100.00;102167.41;5041036;28;45408;-70
2022/10/08 11:04:13;;;;;;;;;0.67;0.67;;;;;17.75;100.00;102161.16;5059352;28;45426;-70
2022/10/08 11:06:45;;;;;;;;;0.67;0.67;;;;;17.75;100.00;102168.28;5064864;28;45606;-70
2022/10/08 11:09:29;;;;;;;;;1.00;1.00;;;;;17.76;100.00;102170.97;5041301;28;47578;-70
2022/10/08 11:12:12;;;;;;;;;2.67;1.00;;;;;17.77;100.00;102171.84;5038030;28;45423;-70
2022/10/08 11:15:14;;;;;;;;;2.00;2.00;;;;;17.81;100.00;102162.97;5059583;28;45273;-70
2022/10/08 11:18:01;;;;;;;;;1.67;1.00;;;;;17.94;100.00;102178.13;5048171;28;45451;-70
2022/10/08 11:20:41;;;;;;;;;2.33;2.00;;;;;18.02;100.00;102162.09;5057511;28;45948;-70
2022/10/08 11:23:16;;;;;;;;;4.33;2.00;;;;;18.06;100.00;102169.25;5040636;28;45664;-70
2022/10/08 11:25:57;;;;;;;;;4.67;0.33;;;;;18.03;100.00;102170.13;5059471;28;45357;-70
2022/10/08 11:28:58;;;;;;;;;3.00;0.00;;;;;18.03;100.00;102170.13;5041126;28;45666;-70
2022/10/08 11:31:39;;;;;;;;;1.00;1.00;;;;;17.97;100.00;102156.75;5057365;28;46551;-70
2022/10/08 11:34:16;;;;;;;;;4.00;1.00;;;;;18.04;100.00;102168.34;5053358;28;45330;-71